CMX2 weather

Maxville Airport
Maxville, Ontario, Canada

Public forecast

Using degrees Celsius for public forecast. Weather courtesy of forecast.io.

METAR (pilot weather report)

Closest report is Massena International Richards Field, 21.7 nm (40.1 km) S. Retrieved 2019/05/19 13:53 UTC (10 minutes ago):

KMSS 191353Z AUTO 05008KT 10SM BKN009 OVC033 12/09 A2996 RMK AO2 CIG 007V012 SLP147 T01170094

TAF (pilot weather forecast)

Closest forecast is Massena International Richards Field, 21.7 nm (40.1 km) S. Retrieved 2019/05/19 12:34 UTC (1 hour ago):

TAF KMSS 191131Z 1912/2012 07007KT P6SM -SHRA OVC045 FM191500 06007KT P6SM VCSH OVC040 FM191800 06006KT P6SM VCSH BKN030 FM200300 21009G18KT P6SM BKN100